Time;durP1;ratioP1;P1;durP2;ratioP2;P2;SDS_P1;SDS_P2;PMS_P1;PMS_P2;Temp;Humidity;BMP_temperature;BMP_pressure;BME280_temperature;BME280_humidity;BME280_pressure;Samples;Min_cycle;Max_cycle;Signal;HPM_P1;HPM_P2
2021/11/12 00:02:19;;;;;;;57.80;30.88;;;13.60;99.90;;;;;;5095422;28;20421;-78
2021/11/12 00:15:35;;;;;;;56.10;27.73;;;13.10;99.90;;;;;;5099035;28;20178;-76
2021/11/12 00:18:01;;;;;;;55.15;28.90;;;12.80;99.90;;;;;;5085886;28;20181;-75
2021/11/12 00:20:27;;;;;;;46.13;27.92;;;12.60;99.90;;;;;;5100955;28;20673;-73
2021/11/12 00:22:53;;;;;;;50.80;28.45;;;12.40;99.90;;;;;;5079892;28;20218;-74
2021/11/12 00:25:19;;;;;;;51.55;28.67;;;12.30;99.90;;;;;;5121516;27;20287;-75
2021/11/12 00:27:46;;;;;;;51.60;27.88;;;12.20;99.90;;;;;;5080681;28;20337;-78
2021/11/12 00:32:53;;;;;;;48.30;28.35;;;12.10;99.90;;;;;;5099943;28;20186;-75
2021/11/12 00:37:54;;;;;;;50.65;29.08;;;12.00;99.90;;;;;;5098733;28;20199;-77
2021/11/12 00:45:48;;;;;;;50.20;29.23;;;11.80;99.90;;;;;;5097073;28;20209;-75
2021/11/12 00:48:17;;;;;;;46.60;28.13;;;11.90;99.90;;;;;;5100750;28;20748;-78
2021/11/12 00:55:41;;;;;;;55.40;29.75;;;11.80;99.90;;;;;;5104487;28;20190;-76
2021/11/12 00:58:13;;;;;;;53.63;29.60;;;11.80;99.90;;;;;;5100611;28;20182;-75
2021/11/12 01:00:40;;;;;;;53.63;30.58;;;11.80;99.90;;;;;;5084802;28;20186;-75
2021/11/12 01:03:06;;;;;;;49.58;28.48;;;11.80;99.90;;;;;;5082301;28;20192;-76
2021/11/12 01:05:32;;;;;;;49.40;29.52;;;11.70;99.90;;;;;;5104282;28;20201;-76
2021/11/12 01:08:02;;;;;;;51.22;30.42;;;11.80;99.90;;;;;;5104294;28;20189;-76
2021/11/12 01:10:29;;;;;;;55.55;29.73;;;11.70;99.90;;;;;;5102248;28;20662;-76
2021/11/12 01:12:57;;;;;;;51.92;29.30;;;11.70;99.90;;;;;;5095651;28;20185;-77
2021/11/12 01:15:24;;;;;;;52.60;29.95;;;11.70;99.90;;;;;;5081788;28;20189;-78
2021/11/12 01:17:51;;;;;;;57.47;30.48;;;11.70;99.90;;;;;;5099444;28;20237;-76
2021/11/12 01:20:18;;;;;;;51.83;29.85;;;11.70;99.90;;;;;;5084419;28;20184;-77
2021/11/12 01:22:45;;;;;;;56.38;30.13;;;11.70;99.90;;;;;;5101858;28;20181;-76
2021/11/12 01:25:13;;;;;;;52.95;28.95;;;11.70;99.90;;;;;;5083883;28;20249;-78
2021/11/12 01:27:41;;;;;;;61.05;30.38;;;11.60;99.90;;;;;;5099546;28;20216;-78
2021/11/12 01:30:09;;;;;;;56.10;28.95;;;11.60;99.90;;;;;;5082774;28;20656;-78
2021/11/12 01:32:35;;;;;;;54.50;30.05;;;11.60;99.90;;;;;;5082047;28;20237;-76
2021/11/12 01:35:02;;;;;;;57.17;31.45;;;11.60;99.90;;;;;;5087917;28;20189;-78
2021/11/12 01:37:29;;;;;;;57.40;31.23;;;11.60;99.90;;;;;;5101787;28;20192;-76
2021/11/12 01:39:59;;;;;;;56.70;30.55;;;11.60;99.90;;;;;;5083798;28;20291;-77
2021/11/12 01:42:47;;;;;;;56.97;30.95;;;11.60;99.90;;;;;;5068825;28;20540;-76
2021/11/12 01:45:13;;;;;;;66.13;31.63;;;11.50;99.90;;;;;;5101019;28;20213;-77
2021/11/12 01:50:14;;;;;;;61.13;30.00;;;11.50;99.90;;;;;;5083209;28;20209;-78
2021/11/12 01:52:46;;;;;;;62.60;30.55;;;11.50;99.90;;;;;;5095910;28;20263;-78
2021/11/12 01:55:27;;;;;;;65.18;31.85;;;11.50;99.90;;;;;;5097001;28;20239;-77
2021/11/12 01:58:05;;;;;;;61.75;31.70;;;11.50;99.90;;;;;;5085117;28;20186;-76
2021/11/12 02:00:32;;;;;;;63.42;31.27;;;11.50;99.90;;;;;;5068464;28;20197;-77
2021/11/12 02:02:59;;;;;;;68.78;31.83;;;11.50;99.90;;;;;;5096142;28;20200;-78
2021/11/12 02:05:26;;;;;;;67.30;31.35;;;11.50;99.90;;;;;;5068142;28;20205;-77
2021/11/12 02:07:53;;;;;;;63.78;30.05;;;11.50;99.90;;;;;;5082318;28;20186;-77
2021/11/12 02:10:24;;;;;;;65.22;29.35;;;11.50;99.90;;;;;;5097675;28;20264;-77
2021/11/12 02:12:57;;;;;;;64.07;28.98;;;11.50;99.90;;;;;;5085773;28;20193;-76
2021/11/12 02:15:24;;;;;;;58.13;28.25;;;11.50;99.90;;;;;;5100973;28;20192;-77
2021/11/12 02:17:59;;;;;;;60.50;29.10;;;11.40;99.90;;;;;;5079302;28;20186;-77
2021/11/12 02:20:40;;;;;;;55.40;28.35;;;11.40;99.90;;;;;;5104619;28;20235;-75
2021/11/12 02:23:06;;;;;;;64.40;26.95;;;11.40;99.90;;;;;;5099799;28;22099;-76
2021/11/12 02:25:38;;;;;;;57.30;26.75;;;11.40;99.90;;;;;;5084817;28;20292;-77
2021/11/12 02:28:13;;;;;;;62.60;28.27;;;11.40;99.90;;;;;;5103116;28;20177;-79
2021/11/12 02:30:41;;;;;;;55.05;27.13;;;11.40;99.90;;;;;;5100076;28;20267;-77
2021/11/12 02:33:15;;;;;;;55.83;27.73;;;11.40;99.90;;;;;;5081629;28;20185;-76
2021/11/12 02:36:02;;;;;;;54.38;28.23;;;11.40;99.90;;;;;;5097469;28;20177;-74
2021/11/12 02:38:30;;;;;;;54.75;27.67;;;11.40;99.90;;;;;;5099117;28;20186;-76
2021/11/12 02:40:56;;;;;;;59.08;29.42;;;11.40;99.90;;;;;;5098792;28;20189;-76
2021/11/12 02:43:23;;;;;;;62.50;28.40;;;11.40;99.90;;;;;;5100010;28;20292;-76
2021/11/12 02:45:49;;;;;;;55.55;28.35;;;11.40;99.90;;;;;;5086277;28;20220;-77
2021/11/12 02:48:15;;;;;;;53.85;27.50;;;11.40;99.90;;;;;;5080882;28;20182;-75
2021/11/12 02:50:41;;;;;;;53.15;28.60;;;11.40;99.90;;;;;;5082193;28;20174;-77
2021/11/12 02:53:14;;;;;;;57.42;29.05;;;11.40;99.90;;;;;;5097511;28;20197;-77
2021/11/12 02:55:42;;;;;;;60.97;30.05;;;11.40;99.90;;;;;;5063316;28;20185;-77
2021/11/12 02:58:09;;;;;;;63.28;30.85;;;11.40;99.90;;;;;;5099653;28;20192;-76
2021/11/12 03:00:37;;;;;;;56.22;30.55;;;11.40;99.90;;;;;;5102275;28;20556;-76
2021/11/12 03:03:04;;;;;;;56.75;29.48;;;11.40;99.90;;;;;;5101910;28;20197;-75
2021/11/12 03:05:33;;;;;;;57.05;30.38;;;11.30;99.90;;;;;;5097541;28;20211;-76
2021/11/12 03:08:00;;;;;;;55.35;32.38;;;11.30;99.90;;;;;;5093808;28;20504;-75
2021/11/12 03:10:26;;;;;;;54.92;31.80;;;11.80;99.90;;;;;;5095970;28;20561;-75
2021/11/12 03:12:52;;;;;;;55.45;32.35;;;12.00;99.90;;;;;;5102181;28;20594;-76
2021/11/12 03:15:18;;;;;;;53.47;31.55;;;12.20;99.90;;;;;;5103792;28;20423;-74
2021/11/12 03:17:47;;;;;;;53.17;31.00;;;12.30;99.90;;;;;;5084924;28;20416;-76
2021/11/12 03:20:15;;;;;;;52.88;30.23;;;12.40;99.90;;;;;;5098521;28;20411;-77
2021/11/12 03:22:51;;;;;;;52.37;30.10;;;12.40;99.90;;;;;;5091310;28;20882;-76
2021/11/12 03:25:58;;;;;;;51.65;30.65;;;12.50;99.90;;;;;;5079719;28;20470;-76
2021/11/12 03:28:43;;;;;;;52.30;30.23;;;12.50;99.90;;;;;;5092620;28;21293;-76
2021/11/12 03:56:28;;;;;;;49.80;29.27;;;12.50;99.90;;;;;;5083655;28;20888;-76
2021/11/12 04:06:36;;;;;;;50.92;29.35;;;12.30;99.90;;;;;;5094715;28;20416;-74
2021/11/12 04:20:10;;;;;;;45.50;27.13;;;12.30;99.70;;;;;;5101958;28;20404;-77
2021/11/12 04:30:38;;;;;;;42.28;26.50;;;12.30;99.60;;;;;;5096933;28;20405;-75
2021/11/12 04:39:42;;;;;;;46.70;27.38;;;12.30;99.40;;;;;;5104484;28;20412;-74
2021/11/12 05:09:42;;;;;;;51.95;34.05;;;12.10;99.10;;;;;;5094299;28;20416;-76
2021/11/12 05:43:38;;;;;;;63.95;41.75;;;11.70;99.20;;;;;;5099103;28;20412;-75
2021/11/12 05:46:16;;;;;;;65.32;43.15;;;11.70;99.30;;;;;;5097785;28;20793;-77
2021/11/12 05:51:55;;;;;;;67.70;44.08;;;11.60;99.30;;;;;;5096531;28;20433;-77
2021/11/12 05:57:06;;;;;;;68.07;43.70;;;11.60;99.40;;;;;;5083015;28;20404;-76
2021/11/12 05:59:32;;;;;;;72.57;46.40;;;11.60;99.40;;;;;;5098827;28;20431;-75
2021/11/12 06:01:57;;;;;;;70.90;46.03;;;11.50;99.50;;;;;;5081772;28;20454;-76
2021/11/12 06:04:24;;;;;;;74.68;47.03;;;11.50;99.80;;;;;;5099899;28;20401;-76
2021/11/12 06:06:50;;;;;;;74.43;46.88;;;11.40;99.50;;;;;;5097868;28;20416;-76
2021/11/12 06:09:16;;;;;;;80.70;45.97;;;11.40;99.60;;;;;;5098330;28;20192;-78
2021/11/12 06:11:43;;;;;;;75.32;48.30;;;11.00;99.90;;;;;;5082217;28;20764;-79
2021/11/12 06:14:09;;;;;;;80.75;50.70;;;11.10;99.90;;;;;;5100298;28;20450;-77
2021/11/12 06:16:35;;;;;;;80.43;49.67;;;11.20;99.90;;;;;;5093285;28;22410;-76
2021/11/12 06:19:01;;;;;;;84.63;51.22;;;11.20;99.90;;;;;;5081480;28;20470;-78
2021/11/12 06:21:28;;;;;;;82.20;51.15;;;11.20;99.90;;;;;;5078494;28;20459;-75
2021/11/12 06:23:54;;;;;;;88.17;52.93;;;11.10;99.90;;;;;;5096892;28;20409;-73
2021/11/12 06:26:19;;;;;;;89.60;53.42;;;11.10;99.90;;;;;;5098441;28;20431;-77
2021/11/12 06:28:45;;;;;;;90.93;54.38;;;11.00;99.90;;;;;;5093052;28;20412;-77
2021/11/12 06:31:12;;;;;;;93.23;55.50;;;11.00;99.90;;;;;;5057911;28;20417;-79
2021/11/12 06:33:38;;;;;;;98.43;56.15;;;10.90;99.90;;;;;;5081942;28;20414;-76
2021/11/12 06:36:04;;;;;;;95.07;55.83;;;10.90;99.90;;;;;;5080318;28;20544;-78
2021/11/12 06:38:31;;;;;;;96.65;55.47;;;10.90;99.90;;;;;;5098069;28;21000;-76
2021/11/12 06:40:59;;;;;;;96.38;55.80;;;10.80;99.90;;;;;;5080801;28;20510;-80
2021/11/12 06:43:28;;;;;;;99.05;56.15;;;10.80;99.90;;;;;;5102535;28;20533;-78
2021/11/12 06:51:24;;;;;;;97.70;55.47;;;10.60;99.90;;;;;;5094226;28;20411;-77
2021/11/12 06:53:52;;;;;;;96.05;54.90;;;10.60;99.90;;;;;;5079285;28;20404;-79
2021/11/12 06:56:19;;;;;;;97.47;55.38;;;10.60;99.90;;;;;;5064663;28;20464;-76
2021/11/12 06:58:46;;;;;;;96.70;54.60;;;10.60;99.90;;;;;;5098148;28;20419;-76
2021/11/12 07:01:12;;;;;;;98.33;52.60;;;10.50;99.90;;;;;;5063401;28;20415;-77
2021/11/12 07:03:38;;;;;;;93.57;53.22;;;10.50;99.90;;;;;;5100660;28;20427;-73
2021/11/12 07:06:04;;;;;;;93.83;53.13;;;10.50;99.90;;;;;;5084541;28;20408;-73
2021/11/12 07:08:29;;;;;;;97.25;52.63;;;10.50;99.90;;;;;;5067787;28;20598;-77
2021/11/12 07:10:57;;;;;;;90.75;51.80;;;10.40;99.90;;;;;;5077396;28;20410;-78
2021/11/12 07:13:25;;;;;;;90.65;52.50;;;10.40;99.90;;;;;;5078610;28;20910;-76
2021/11/12 07:15:52;;;;;;;92.75;53.25;;;10.40;99.90;;;;;;5076535;28;20424;-80
2021/11/12 07:18:20;;;;;;;95.60;52.53;;;10.40;99.90;;;;;;5064552;28;20423;-75
2021/11/12 07:20:47;;;;;;;92.37;52.50;;;10.30;99.90;;;;;;5081722;28;20420;-76
2021/11/12 07:23:14;;;;;;;92.80;53.55;;;10.20;99.90;;;;;;5100591;28;20410;-78
2021/11/12 07:25:41;;;;;;;92.60;53.20;;;10.20;99.90;;;;;;5076858;28;21559;-79
2021/11/12 07:28:08;;;;;;;87.72;51.80;;;10.20;99.90;;;;;;5073087;28;20405;-78
2021/11/12 07:30:36;;;;;;;90.93;52.72;;;10.20;99.90;;;;;;5094432;28;20911;-78
2021/11/12 07:33:02;;;;;;;89.97;52.50;;;10.20;99.90;;;;;;5096115;28;20404;-78
2021/11/12 07:35:33;;;;;;;92.57;53.30;;;10.20;99.90;;;;;;5102440;28;20414;-77
2021/11/12 07:38:00;;;;;;;96.78;52.65;;;10.10;99.90;;;;;;5091756;28;20417;-78
2021/11/12 07:46:11;;;;;;;92.38;51.70;;;10.10;99.90;;;;;;5083141;28;20424;-78
2021/11/12 07:48:38;;;;;;;91.18;51.45;;;10.10;99.80;;;;;;5080556;28;20426;-79
2021/11/12 07:51:03;;;;;;;90.00;52.47;;;10.10;99.70;;;;;;5099022;28;20891;-78
2021/11/12 07:53:29;;;;;;;87.60;51.80;;;10.10;99.80;;;;;;5100129;28;20488;-78
2021/11/12 07:55:55;;;;;;;85.33;52.00;;;10.10;99.70;;;;;;5085802;28;20408;-77
2021/11/12 07:58:21;;;;;;;87.28;50.53;;;10.20;99.70;;;;;;5080686;28;20629;-78
2021/11/12 08:00:47;;;;;;;87.68;51.25;;;10.20;99.60;;;;;;5098412;28;20407;-73
2021/11/12 08:03:14;;;;;;;87.88;51.05;;;10.20;99.50;;;;;;5088747;28;20411;-76
2021/11/12 08:05:43;;;;;;;90.43;51.45;;;10.30;99.50;;;;;;5104652;28;20979;-76
2021/11/12 08:08:12;;;;;;;84.75;49.47;;;10.40;99.30;;;;;;5087440;28;20415;-75
2021/11/12 08:10:48;;;;;;;86.22;49.85;;;10.40;99.20;;;;;;5084725;28;20405;-74
2021/11/12 08:13:35;;;;;;;82.37;48.23;;;10.50;99.10;;;;;;5099990;28;20445;-74
2021/11/12 08:16:17;;;;;;;85.50;50.60;;;10.60;99.00;;;;;;5099141;28;20415;-74
2021/11/12 08:18:51;;;;;;;82.03;48.92;;;10.70;98.80;;;;;;5104246;28;20420;-73
2021/11/12 08:39:29;;;;;;;66.85;40.40;;;12.90;94.70;;;;;;5096647;28;20826;-76
2021/11/12 08:42:05;;;;;;;67.18;39.88;;;13.60;93.30;;;;;;5096785;28;20422;-78
2021/11/12 08:44:42;;;;;;;63.45;38.70;;;14.30;91.80;;;;;;5083157;28;20765;-76
2021/11/12 08:47:15;;;;;;;63.42;39.15;;;14.90;90.20;;;;;;5100278;28;20499;-78
2021/11/12 08:49:42;;;;;;;61.10;37.55;;;15.60;86.40;;;;;;5104560;28;20479;-78
2021/11/12 08:52:12;;;;;;;59.92;38.08;;;16.20;82.60;;;;;;5102187;28;20488;-78
2021/11/12 08:54:41;;;;;;;56.77;36.87;;;16.70;80.30;;;;;;5080826;28;20405;-75
2021/11/12 08:57:16;;;;;;;57.57;37.10;;;17.20;76.90;;;;;;5084004;28;20424;-78
2021/11/12 08:59:43;;;;;;;57.10;36.65;;;17.60;74.20;;;;;;5098893;28;20754;-77
2021/11/12 09:02:14;;;;;;;58.20;36.92;;;17.90;72.00;;;;;;5096424;28;20479;-77
2021/11/12 09:04:40;;;;;;;57.80;36.90;;;18.10;70.20;;;;;;5102230;28;20410;-77
2021/11/12 09:07:08;;;;;;;58.30;36.38;;;18.20;69.20;;;;;;5079201;28;20897;-75
2021/11/12 09:09:34;;;;;;;56.97;38.17;;;18.20;69.70;;;;;;5100052;28;20500;-75
2021/11/12 09:12:00;;;;;;;58.10;38.10;;;18.20;68.90;;;;;;5101177;28;20410;-74
2021/11/12 09:14:28;;;;;;;64.22;38.70;;;18.30;69.20;;;;;;5086535;28;21269;-76
2021/11/12 09:16:54;;;;;;;59.85;39.28;;;18.50;67.80;;;;;;5099863;28;21017;-75
2021/11/12 09:19:19;;;;;;;62.90;40.43;;;18.70;65.10;;;;;;5082309;28;20425;-76
2021/11/12 09:21:47;;;;;;;66.80;41.75;;;18.70;65.50;;;;;;5085333;28;20988;-75
2021/11/12 09:24:13;;;;;;;71.38;43.20;;;18.20;65.60;;;;;;5105199;28;20544;-76
2021/11/12 09:26:40;;;;;;;73.45;45.28;;;17.30;70.10;;;;;;5078323;28;20507;-75
2021/11/12 09:29:10;;;;;;;78.30;46.70;;;16.40;72.70;;;;;;5105364;28;21164;-75
2021/11/12 09:31:37;;;;;;;79.63;47.50;;;15.50;76.10;;;;;;5102188;28;20496;-74
2021/11/12 09:34:05;;;;;;;81.13;47.35;;;14.80;79.70;;;;;;5105659;28;20416;-78
2021/11/12 09:36:31;;;;;;;90.40;49.10;;;14.40;84.00;;;;;;5086757;28;21112;-77
2021/11/12 09:38:57;;;;;;;84.35;48.55;;;14.00;84.60;;;;;;5070769;28;20742;-76
2021/11/12 09:41:23;;;;;;;86.53;48.97;;;13.60;86.80;;;;;;5078210;28;20519;-77
2021/11/12 09:43:49;;;;;;;88.40;49.63;;;13.30;89.00;;;;;;5084525;28;20500;-76
2021/11/12 09:46:16;;;;;;;87.27;49.77;;;13.00;90.30;;;;;;5104150;28;20411;-75
2021/11/12 09:48:42;;;;;;;88.47;51.72;;;12.80;91.00;;;;;;5081885;28;20905;-76
2021/11/12 09:51:10;;;;;;;91.60;51.40;;;12.60;91.40;;;;;;5102582;28;20444;-76
2021/11/12 09:53:36;;;;;;;94.03;53.92;;;12.50;91.80;;;;;;5098708;28;20494;-76
2021/11/12 09:56:03;;;;;;;99.03;53.63;;;12.30;92.20;;;;;;5097784;28;20426;-76
2021/11/12 09:58:32;;;;;;;106.72;54.55;;;12.10;92.70;;;;;;5101845;28;20412;-76
2021/11/12 10:00:59;;;;;;;101.57;54.13;;;12.00;93.10;;;;;;5096004;28;20904;-76
2021/11/12 10:03:32;;;;;;;101.57;55.22;;;11.80;93.90;;;;;;5105384;28;20437;-76
2021/11/12 10:05:58;;;;;;;98.35;49.92;;;11.80;94.40;;;;;;5100516;28;20309;-75
2021/11/12 10:08:37;;;;;;;101.18;49.58;;;11.30;94.80;;;;;;5094958;28;20261;-75
2021/11/12 10:11:09;;;;;;;105.60;51.15;;;10.90;95.30;;;;;;5103238;28;20189;-75
2021/11/12 10:13:40;;;;;;;110.18;56.83;;;10.70;95.80;;;;;;5093995;28;20437;-76
2021/11/12 10:19:17;;;;;;;109.57;57.38;;;11.40;96.10;;;;;;5103790;28;20416;-75
2021/11/12 10:21:47;;;;;;;109.17;58.57;;;11.40;96.10;;;;;;5098576;28;20420;-76
2021/11/12 10:24:17;;;;;;;108.82;58.58;;;11.50;96.00;;;;;;5105013;28;20418;-77
2021/11/12 10:26:53;;;;;;;108.35;58.75;;;11.50;96.10;;;;;;5082172;28;20412;-76
2021/11/12 10:29:23;;;;;;;107.05;56.55;;;11.50;96.30;;;;;;5101692;28;20410;-78
2021/11/12 10:32:09;;;;;;;103.43;56.75;;;11.60;96.50;;;;;;5100375;28;20461;-77
2021/11/12 10:34:38;;;;;;;102.43;56.00;;;11.70;96.30;;;;;;5094353;28;20448;-78
2021/11/12 10:37:08;;;;;;;100.07;54.75;;;11.80;96.30;;;;;;5068708;28;20407;-77
2021/11/12 10:39:34;;;;;;;96.15;52.53;;;11.80;96.10;;;;;;5101947;28;20439;-79
2021/11/12 10:42:03;;;;;;;92.97;50.42;;;11.90;95.90;;;;;;5080815;28;20499;-78
2021/11/12 10:44:32;;;;;;;89.03;50.60;;;11.90;95.80;;;;;;5097410;28;20415;-77
2021/11/12 10:47:03;;;;;;;83.45;48.33;;;11.90;95.70;;;;;;5098093;28;20493;-77
2021/11/12 10:49:32;;;;;;;81.50;47.47;;;11.90;95.60;;;;;;5095530;28;20456;-75
2021/11/12 10:52:05;;;;;;;82.35;47.22;;;11.90;95.80;;;;;;5095935;28;20435;-77
2021/11/12 10:54:49;;;;;;;76.90;44.83;;;12.00;95.60;;;;;;5085403;28;20526;-76
2021/11/12 10:57:15;;;;;;;75.43;45.17;;;12.00;95.90;;;;;;5067238;28;20420;-77
2021/11/12 11:00:11;;;;;;;73.82;44.05;;;12.00;95.40;;;;;;5097436;28;20426;-77
2021/11/12 11:02:39;;;;;;;71.73;43.33;;;12.00;95.40;;;;;;5062040;28;20427;-76
2021/11/12 11:05:14;;;;;;;68.07;41.97;;;11.90;95.40;;;;;;5098105;28;20460;-76
2021/11/12 11:07:40;;;;;;;66.38;40.85;;;11.90;95.70;;;;;;5080054;28;20402;-75
2021/11/12 11:10:20;;;;;;;67.13;41.65;;;11.90;95.40;;;;;;5084342;28;20412;-74
2021/11/12 11:12:45;;;;;;;67.78;41.28;;;11.80;95.40;;;;;;5083161;28;20436;-76
2021/11/12 11:15:27;;;;;;;69.57;41.47;;;11.90;95.80;;;;;;5081533;28;20436;-76
2021/11/12 11:18:43;;;;;;;63.42;40.13;;;11.90;95.60;;;;;;5106492;28;20464;-83
2021/11/12 11:21:11;;;;;;;63.22;38.60;;;12.00;95.40;;;;;;5100428;28;20451;-75
2021/11/12 11:23:55;;;;;;;59.22;38.17;;;11.90;95.00;;;;;;5105435;28;20412;-77
2021/11/12 11:26:25;;;;;;;60.13;37.90;;;11.90;95.30;;;;;;5084394;28;20498;-78
2021/11/12 11:28:53;;;;;;;58.22;36.90;;;11.80;95.20;;;;;;5084029;28;20407;-76
2021/11/12 11:31:20;;;;;;;62.03;38.33;;;11.80;95.20;;;;;;5101827;28;20434;-78
2021/11/12 11:33:49;;;;;;;60.45;37.58;;;11.80;95.30;;;;;;5085680;28;20456;-76
2021/11/12 11:36:16;;;;;;;60.60;37.90;;;11.80;95.50;;;;;;5093780;28;20400;-78
2021/11/12 11:38:43;;;;;;;61.65;38.20;;;11.80;95.70;;;;;;5101527;28;20396;-76
2021/11/12 11:41:11;;;;;;;59.42;37.97;;;11.80;95.60;;;;;;5102279;28;20409;-77
2021/11/12 11:43:37;;;;;;;61.28;38.67;;;11.80;95.70;;;;;;5096183;28;20418;-78
2021/11/12 11:46:06;;;;;;;59.22;38.08;;;11.70;95.50;;;;;;5080420;28;20429;-77
2021/11/12 11:48:40;;;;;;;63.17;39.33;;;11.70;95.40;;;;;;5085986;28;20933;-77
2021/11/12 11:51:07;;;;;;;62.40;39.40;;;11.70;95.50;;;;;;5101364;28;20775;-77
2021/11/12 11:53:48;;;;;;;60.60;39.30;;;11.70;95.60;;;;;;5105189;28;20870;-77
2021/11/12 11:56:36;;;;;;;61.28;38.50;;;11.70;95.80;;;;;;5099599;28;20473;-73
2021/11/12 11:59:10;;;;;;;66.40;40.22;;;11.70;96.00;;;;;;5080430;28;20913;-70
2021/11/12 12:01:48;;;;;;;66.07;41.33;;;11.70;95.80;;;;;;5105638;28;20443;-72
2021/11/12 12:04:14;;;;;;;66.88;42.33;;;11.70;96.00;;;;;;5106733;28;20492;-72
2021/11/12 12:07:01;;;;;;;70.33;42.37;;;11.80;96.20;;;;;;5102701;28;20420;-72
2021/11/12 12:09:51;;;;;;;67.40;42.13;;;11.80;96.00;;;;;;5107571;28;20466;-70
2021/11/12 12:12:34;;;;;;;71.60;42.83;;;11.70;96.20;;;;;;5104973;28;20412;-72
2021/11/12 12:15:03;;;;;;;67.70;42.47;;;11.70;96.20;;;;;;5104733;28;20785;-74
2021/11/12 12:17:29;;;;;;;74.30;42.95;;;11.70;96.50;;;;;;5083727;28;20420;-74
2021/11/12 12:20:06;;;;;;;71.72;42.60;;;11.60;96.60;;;;;;5105993;28;20419;-74
2021/11/12 13:24:33;;;;;;;57.65;36.53;;;11.40;97.90;;;;;;5100455;28;20447;-75
2021/11/12 13:27:06;;;;;;;57.92;37.53;;;11.50;97.80;;;;;;5100832;28;20425;-74
2021/11/12 13:29:37;;;;;;;56.27;35.90;;;11.40;97.40;;;;;;5086628;28;20548;-76
2021/11/12 13:32:07;;;;;;;56.28;36.88;;;11.40;97.60;;;;;;5092441;28;20784;-76
2021/11/12 13:34:45;;;;;;;59.20;37.00;;;11.50;97.40;;;;;;5076868;28;20805;-77
2021/11/12 13:37:18;;;;;;;59.08;37.35;;;11.40;97.30;;;;;;5099569;28;20423;-74
2021/11/12 13:39:45;;;;;;;55.72;35.67;;;11.40;97.30;;;;;;5098071;28;20457;-77
2021/11/12 13:42:11;;;;;;;57.95;36.92;;;11.50;97.30;;;;;;5079984;28;20963;-76
2021/11/12 13:44:38;;;;;;;55.47;35.47;;;11.50;97.30;;;;;;5084653;28;20444;-74
2021/11/12 13:47:08;;;;;;;54.83;34.87;;;11.50;97.10;;;;;;5093694;28;20912;-76
2021/11/12 13:49:43;;;;;;;54.90;35.53;;;11.50;97.10;;;;;;5099194;28;20465;-77
2021/11/12 13:52:11;;;;;;;54.53;35.20;;;11.50;97.20;;;;;;5082255;28;20497;-77
2021/11/12 13:54:46;;;;;;;58.87;35.60;;;11.50;97.10;;;;;;5068932;28;20407;-78
2021/11/12 13:57:14;;;;;;;56.67;35.70;;;11.50;97.10;;;;;;5095456;28;20480;-75
2021/11/12 14:00:03;;;;;;;53.55;34.80;;;11.60;97.00;;;;;;5085137;28;20997;-75
2021/11/12 14:03:07;;;;;;;51.22;34.72;;;11.70;96.80;;;;;;5086796;28;20404;-76
2021/11/12 14:05:34;;;;;;;49.80;33.90;;;11.70;96.90;;;;;;5081096;28;20888;-76
2021/11/12 14:08:07;;;;;;;50.05;32.90;;;11.70;97.10;;;;;;5090945;28;20976;-75
2021/11/12 14:10:48;;;;;;;52.58;33.42;;;11.70;96.90;;;;;;5082845;28;20426;-76
2021/11/12 14:13:16;;;;;;;48.42;33.03;;;11.70;96.90;;;;;;5103909;28;20476;-75
2021/11/12 14:21:51;;;;;;;47.83;31.23;;;11.70;96.90;;;;;;5099941;28;20408;-74
2021/11/12 14:27:26;;;;;;;46.25;30.67;;;11.60;96.90;;;;;;5095048;28;20528;-73
2021/11/12 14:46:13;;;;;;;43.22;29.55;;;11.70;97.00;;;;;;5101574;28;20976;-75
2021/11/12 14:48:56;;;;;;;43.35;29.27;;;11.70;97.00;;;;;;5103165;28;20515;-77
2021/11/12 14:54:45;;;;;;;41.95;28.27;;;11.70;97.10;;;;;;5093583;28;20873;-76
2021/11/12 14:57:26;;;;;;;45.28;29.50;;;11.70;97.20;;;;;;5103163;28;21261;-74
2021/11/12 14:59:59;;;;;;;43.17;28.30;;;11.70;97.10;;;;;;5099085;28;20408;-74
2021/11/12 15:02:27;;;;;;;42.92;27.88;;;11.70;97.20;;;;;;5083267;28;20423;-75
2021/11/12 15:04:53;;;;;;;41.28;27.52;;;11.70;96.90;;;;;;5085112;28;20416;-74
2021/11/12 15:07:24;;;;;;;44.10;28.65;;;11.60;96.90;;;;;;5095439;28;20415;-74
2021/11/12 15:09:51;;;;;;;44.67;28.38;;;11.60;97.00;;;;;;5100080;28;20404;-74
2021/11/12 15:12:16;;;;;;;45.10;28.37;;;11.60;97.10;;;;;;5082750;28;20975;-74
2021/11/12 15:14:47;;;;;;;41.47;27.08;;;11.60;97.00;;;;;;5063817;28;20487;-74
2021/11/12 15:17:13;;;;;;;45.23;27.23;;;11.70;97.10;;;;;;5079532;28;20686;-75
2021/11/12 15:19:42;;;;;;;42.97;27.45;;;11.70;96.90;;;;;;5070069;28;20949;-75
2021/11/12 15:32:47;;;;;;;43.27;27.40;;;11.80;96.60;;;;;;5097826;28;20408;-74
2021/11/12 15:35:16;;;;;;;40.65;26.75;;;11.80;96.50;;;;;;5078745;28;20555;-73
2021/11/12 15:40:16;;;;;;;44.55;26.90;;;11.90;96.50;;;;;;5104316;28;20408;-73
2021/11/12 15:48:16;;;;;;;40.97;26.67;;;12.00;96.50;;;;;;5102654;28;20407;-75
2021/11/12 15:50:58;;;;;;;43.15;25.75;;;12.00;96.50;;;;;;5101848;28;20410;-73
2021/11/12 15:53:27;;;;;;;41.88;25.90;;;11.90;96.60;;;;;;5093841;28;20463;-74
2021/11/12 16:01:19;;;;;;;41.57;25.03;;;12.00;96.60;;;;;;5097113;28;20865;-75
2021/11/12 16:25:01;;;;;;;39.17;23.45;;;11.90;98.30;;;;;;5099423;28;20421;-74
2021/11/12 16:27:27;;;;;;;32.60;21.55;;;11.80;98.20;;;;;;5086303;28;20452;-74
2021/11/12 16:29:54;;;;;;;35.17;20.73;;;11.90;98.40;;;;;;5095185;28;20437;-75
2021/11/12 16:34:49;;;;;;;33.42;20.63;;;11.80;98.80;;;;;;5107296;28;20404;-75
2021/11/12 16:37:18;;;;;;;31.70;19.73;;;11.80;98.90;;;;;;5088844;28;20481;-74
2021/11/12 16:39:55;;;;;;;32.87;20.23;;;11.80;99.10;;;;;;5070207;28;20428;-75
2021/11/12 16:42:36;;;;;;;31.23;20.23;;;11.80;99.10;;;;;;5072114;28;20410;-75
2021/11/12 16:45:12;;;;;;;33.22;17.65;;;11.90;99.00;;;;;;5069384;28;20907;-76
2021/11/12 16:50:29;;;;;;;28.33;17.38;;;11.90;99.00;;;;;;5096700;28;20848;-76
2021/11/12 17:06:35;;;;;;;27.33;17.63;;;11.90;98.50;;;;;;5101969;28;20415;-75
2021/11/12 17:48:41;;;;;;;22.75;14.70;;;12.00;97.80;;;;;;5083098;28;20404;-76
2021/11/12 18:04:11;;;;;;;24.65;15.50;;;12.20;97.50;;;;;;5095666;28;20408;-76
2021/11/12 18:06:47;;;;;;;21.25;15.02;;;12.20;97.60;;;;;;5093074;28;20422;-77
2021/11/12 21:45:34;;;;;;;48.63;27.33;;;11.60;99.90;;;;;;5098179;28;20453;-74
2021/11/12 21:48:00;;;;;;;47.42;25.85;;;11.60;99.90;;;;;;5097885;28;20444;-75
2021/11/12 21:50:26;;;;;;;42.65;26.23;;;11.70;99.90;;;;;;5081614;28;20405;-73
2021/11/12 21:52:51;;;;;;;48.50;26.88;;;11.70;99.90;;;;;;5081255;28;20488;-73
2021/11/12 21:55:17;;;;;;;48.33;26.50;;;11.70;99.90;;;;;;5103093;28;20447;-75
2021/11/12 21:57:43;;;;;;;49.15;26.73;;;11.70;99.90;;;;;;5098369;28;20408;-74
2021/11/12 22:00:09;;;;;;;42.93;25.27;;;11.70;99.90;;;;;;5104251;28;20426;-74
2021/11/12 22:02:38;;;;;;;44.17;26.10;;;11.80;99.90;;;;;;5102206;28;20412;-75
2021/11/12 22:05:04;;;;;;;48.47;26.93;;;11.80;99.90;;;;;;5100566;28;20455;-73
2021/11/12 22:07:30;;;;;;;43.93;26.60;;;11.80;99.90;;;;;;5084342;28;20442;-75
2021/11/12 22:09:56;;;;;;;47.13;27.48;;;11.80;99.90;;;;;;5103968;28;20501;-73
2021/11/12 22:12:22;;;;;;;42.45;26.38;;;11.80;99.90;;;;;;5081590;28;20403;-73
2021/11/12 22:14:48;;;;;;;44.03;26.13;;;11.80;99.90;;;;;;5098642;28;20418;-74
2021/11/12 22:17:14;;;;;;;41.90;27.00;;;11.80;99.90;;;;;;5101753;28;20416;-73
2021/11/12 22:19:39;;;;;;;46.55;27.15;;;11.90;99.90;;;;;;5099257;28;20448;-74
2021/11/12 22:22:05;;;;;;;47.90;29.15;;;11.90;99.90;;;;;;5082561;28;20412;-73
2021/11/12 22:24:31;;;;;;;45.10;28.40;;;11.90;99.90;;;;;;5082760;28;20413;-75
2021/11/12 22:26:57;;;;;;;47.15;29.10;;;11.90;99.90;;;;;;5082899;28;20434;-75
2021/11/12 22:29:23;;;;;;;49.87;29.73;;;12.00;99.90;;;;;;5095671;28;20410;-73
2021/11/12 22:31:49;;;;;;;48.87;30.37;;;12.00;99.90;;;;;;5099783;28;20408;-74
2021/11/12 22:34:15;;;;;;;53.80;31.53;;;12.00;99.90;;;;;;5082872;28;20411;-76
2021/11/12 22:36:40;;;;;;;58.38;33.78;;;11.90;99.90;;;;;;5078224;28;20784;-75
2021/11/12 22:39:10;;;;;;;55.73;33.47;;;11.90;99.90;;;;;;5090108;28;20963;-75
2021/11/12 22:41:37;;;;;;;59.50;34.93;;;11.90;99.90;;;;;;5075488;28;20472;-77
2021/11/12 22:44:04;;;;;;;54.58;34.20;;;11.90;99.90;;;;;;5093489;28;21098;-75
2021/11/12 22:46:31;;;;;;;58.60;34.60;;;11.90;99.90;;;;;;5083859;28;21441;-76
2021/11/12 22:48:58;;;;;;;57.55;34.47;;;11.90;99.90;;;;;;5104010;28;21100;-75